Time;durP1;ratioP1;P1;durP2;ratioP2;P2;SDS_P1;SDS_P2;PMS_P1;PMS_P2;Temp;Humidity;BMP_temperature;BMP_pressure;BME280_temperature;BME280_humidity;BME280_pressure;Samples;Min_cycle;Max_cycle;Signal;HPM_P1;HPM_P2
2023/05/28 00:00:10;;;;;;;6.17;5.13;;;13.80;99.20;;;;;;5012976;28;20964;-67
2023/05/28 00:02:36;;;;;;;9.10;5.23;;;13.70;99.30;;;;;;5013609;28;20489;-69
2023/05/28 00:05:02;;;;;;;5.80;3.97;;;13.80;99.70;;;;;;5013222;28;20447;-68
2023/05/28 00:07:28;;;;;;;7.17;4.63;;;13.70;99.70;;;;;;5011545;28;20314;-69
2023/05/28 00:09:55;;;;;;;6.43;4.17;;;13.60;99.90;;;;;;5012651;28;20514;-69
2023/05/28 00:12:21;;;;;;;6.80;5.03;;;13.60;99.90;;;;;;5012447;28;20739;-69
2023/05/28 00:14:47;;;;;;;7.27;4.60;;;13.60;99.90;;;;;;5010998;28;20419;-69
2023/05/28 00:17:13;;;;;;;5.20;3.87;;;13.60;99.90;;;;;;5012540;28;20427;-69
2023/05/28 00:19:39;;;;;;;9.80;4.53;;;13.50;99.90;;;;;;5007756;28;20447;-68
2023/05/28 00:22:06;;;;;;;7.47;3.73;;;13.40;99.90;;;;;;5012517;28;20827;-69
2023/05/28 00:24:31;;;;;;;4.67;4.07;;;13.50;99.90;;;;;;5010955;28;20407;-69
2023/05/28 00:26:57;;;;;;;8.30;4.70;;;13.40;99.90;;;;;;4994713;28;20403;-68
2023/05/28 00:29:24;;;;;;;8.53;4.33;;;13.40;99.90;;;;;;5010813;28;20176;-68
2023/05/28 00:31:51;;;;;;;7.20;4.53;;;13.40;99.90;;;;;;5010824;28;20230;-69
2023/05/28 00:34:16;;;;;;;11.53;5.07;;;13.30;99.90;;;;;;5011829;28;20407;-68
2023/05/28 00:36:42;;;;;;;4.40;3.43;;;13.30;99.90;;;;;;5004152;28;20841;-69
2023/05/28 00:39:08;;;;;;;4.50;3.83;;;13.30;99.90;;;;;;5010594;28;20200;-69
2023/05/28 00:41:36;;;;;;;8.37;4.80;;;13.20;99.90;;;;;;5012143;28;20547;-69
2023/05/28 00:44:03;;;;;;;7.10;4.40;;;13.20;99.90;;;;;;5010658;28;20199;-68
2023/05/28 00:46:28;;;;;;;6.97;3.83;;;13.20;99.90;;;;;;5012169;28;20407;-69
2023/05/28 00:48:54;;;;;;;7.17;4.07;;;13.10;99.90;;;;;;5006573;28;20419;-69
2023/05/28 00:51:20;;;;;;;4.57;3.83;;;13.10;99.90;;;;;;5011921;28;20804;-68
2023/05/28 00:53:45;;;;;;;10.07;5.10;;;13.00;99.90;;;;;;5011776;28;20242;-69
2023/05/28 00:56:11;;;;;;;5.63;4.07;;;13.00;99.90;;;;;;5011920;28;20288;-69
2023/05/28 00:58:39;;;;;;;6.90;4.83;;;13.00;99.90;;;;;;5011700;28;20176;-68
2023/05/28 01:01:09;;;;;;;4.93;4.03;;;13.00;99.90;;;;;;5011816;28;20408;-69
2023/05/28 01:03:38;;;;;;;7.17;4.47;;;12.90;99.90;;;;;;5011880;28;20451;-68
2023/05/28 01:06:06;;;;;;;5.87;3.73;;;12.90;99.90;;;;;;5012011;28;20423;-68
2023/05/28 01:08:32;;;;;;;4.87;4.37;;;12.80;99.90;;;;;;5011718;28;20415;-67
2023/05/28 01:10:58;;;;;;;8.63;4.73;;;12.80;99.90;;;;;;5010295;28;20932;-68
2023/05/28 01:13:24;;;;;;;6.93;4.17;;;12.80;99.90;;;;;;4993856;28;20470;-69
2023/05/28 01:15:50;;;;;;;12.67;5.17;;;12.80;99.90;;;;;;5011272;28;20186;-70
2023/05/28 01:18:15;;;;;;;7.77;4.77;;;12.70;99.90;;;;;;5007764;28;20519;-68
2023/05/28 01:20:41;;;;;;;9.27;4.20;;;12.70;99.90;;;;;;5011492;28;20206;-70
2023/05/28 01:23:11;;;;;;;6.90;4.53;;;12.70;99.90;;;;;;5011576;28;20603;-70
2023/05/28 01:25:40;;;;;;;4.63;3.90;;;12.70;99.90;;;;;;5009997;28;20184;-69
2023/05/28 01:28:15;;;;;;;7.20;4.83;;;12.70;99.90;;;;;;5011242;28;20418;-68
2023/05/28 01:30:43;;;;;;;6.57;4.53;;;12.70;99.90;;;;;;5011243;28;20410;-70
2023/05/28 01:33:10;;;;;;;5.80;4.33;;;12.60;99.90;;;;;;5009923;28;20616;-69
2023/05/28 01:35:37;;;;;;;7.60;4.50;;;12.60;99.90;;;;;;5010227;28;20403;-69
2023/05/28 01:38:03;;;;;;;8.47;3.83;;;12.70;99.90;;;;;;5009872;28;20465;-69
2023/05/28 01:40:29;;;;;;;9.00;5.57;;;12.60;99.90;;;;;;5011131;28;20887;-69
2023/05/28 01:42:56;;;;;;;8.60;4.50;;;12.60;99.90;;;;;;5011056;28;20941;-69
2023/05/28 01:45:23;;;;;;;5.90;5.33;;;12.50;99.90;;;;;;5009444;28;20438;-68
2023/05/28 01:47:49;;;;;;;6.10;4.73;;;12.70;99.90;;;;;;5009647;28;20928;-68
2023/05/28 01:50:15;;;;;;;8.63;4.70;;;12.60;99.90;;;;;;5009610;28;20824;-70
2023/05/28 01:52:41;;;;;;;6.80;4.47;;;12.60;99.90;;;;;;5020054;28;20518;-69
2023/05/28 01:55:11;;;;;;;5.67;4.60;;;12.60;99.90;;;;;;5004723;28;20180;-68
2023/05/28 01:57:38;;;;;;;5.03;4.23;;;12.50;99.90;;;;;;5010706;28;20459;-67
2023/05/28 02:00:06;;;;;;;5.73;4.07;;;12.50;99.90;;;;;;5011038;28;20462;-71
2023/05/28 02:02:31;;;;;;;6.57;4.50;;;12.40;99.90;;;;;;5010493;28;20454;-69
2023/05/28 02:04:57;;;;;;;6.00;3.43;;;12.40;99.90;;;;;;5010714;28;20423;-69
2023/05/28 02:07:23;;;;;;;6.00;4.27;;;12.40;99.90;;;;;;5010223;28;20227;-67
2023/05/28 02:09:49;;;;;;;5.07;3.87;;;12.30;99.90;;;;;;5010718;28;20211;-69
2023/05/28 02:12:15;;;;;;;5.40;4.10;;;12.30;99.90;;;;;;5009716;28;20206;-71
2023/05/28 02:14:41;;;;;;;7.20;4.23;;;12.30;99.90;;;;;;5010778;28;20335;-70
2023/05/28 02:17:08;;;;;;;6.53;4.30;;;12.30;99.90;;;;;;5010985;28;20447;-68
2023/05/28 02:19:34;;;;;;;6.57;4.03;;;12.30;99.90;;;;;;5010472;28;20454;-70
2023/05/28 02:21:59;;;;;;;9.50;4.77;;;12.20;99.90;;;;;;4993200;28;21074;-68
2023/05/28 02:24:25;;;;;;;7.47;4.20;;;12.20;99.90;;;;;;5010475;28;20180;-69
2023/05/28 02:26:51;;;;;;;5.77;4.07;;;12.20;99.90;;;;;;5008880;28;21017;-69
2023/05/28 02:29:17;;;;;;;6.13;4.77;;;12.10;99.90;;;;;;5010615;28;20219;-68
2023/05/28 02:31:42;;;;;;;5.80;4.90;;;12.10;99.90;;;;;;5010316;28;20726;-69
2023/05/28 02:34:08;;;;;;;5.07;3.93;;;12.10;99.90;;;;;;5007433;28;20169;-69
2023/05/28 02:36:35;;;;;;;7.40;4.50;;;12.10;99.90;;;;;;5008866;28;20184;-68
2023/05/28 02:39:02;;;;;;;5.10;4.60;;;12.00;99.90;;;;;;5008359;28;20211;-70
2023/05/28 02:41:27;;;;;;;6.80;4.50;;;12.00;99.90;;;;;;5010380;28;20438;-70
2023/05/28 02:43:53;;;;;;;5.70;4.33;;;11.90;99.90;;;;;;5009244;28;20450;-70
2023/05/28 02:46:19;;;;;;;7.77;3.97;;;11.90;99.90;;;;;;5009068;28;20183;-70
2023/05/28 02:48:45;;;;;;;5.03;4.07;;;11.90;99.90;;;;;;5012396;28;20212;-70
2023/05/28 02:51:11;;;;;;;6.00;3.70;;;11.90;99.90;;;;;;5005708;28;20188;-69
2023/05/28 02:53:36;;;;;;;7.10;4.70;;;11.90;99.90;;;;;;5009092;28;20300;-69
2023/05/28 02:56:02;;;;;;;9.30;4.77;;;11.80;99.90;;;;;;5010366;28;20451;-70
2023/05/28 02:58:30;;;;;;;5.80;4.33;;;11.80;99.90;;;;;;5004456;28;20188;-70
2023/05/28 03:00:56;;;;;;;5.47;4.00;;;11.90;99.90;;;;;;5010356;28;20211;-70
2023/05/28 03:03:21;;;;;;;6.10;4.70;;;11.80;99.90;;;;;;5008653;28;20973;-71
2023/05/28 03:05:48;;;;;;;8.27;4.53;;;11.80;99.90;;;;;;5012086;28;20443;-69
2023/05/28 03:08:14;;;;;;;8.60;3.97;;;11.80;99.90;;;;;;5007452;28;20181;-69
2023/05/28 03:10:40;;;;;;;6.70;4.87;;;11.80;99.90;;;;;;5007271;28;20411;-68
2023/05/28 03:13:06;;;;;;;7.17;4.33;;;11.90;99.90;;;;;;5005533;28;20192;-69
2023/05/28 03:15:31;;;;;;;6.30;3.90;;;11.90;99.90;;;;;;5010108;28;20632;-68
2023/05/28 03:17:57;;;;;;;4.70;3.73;;;11.90;99.90;;;;;;5010183;28;20172;-69
2023/05/28 03:20:23;;;;;;;5.13;3.90;;;12.00;99.90;;;;;;5013536;28;20200;-69
2023/05/28 03:22:54;;;;;;;5.50;4.50;;;11.90;99.90;;;;;;5012504;28;20192;-70
2023/05/28 03:25:20;;;;;;;5.07;3.90;;;11.90;99.90;;;;;;5013580;28;20192;-69
2023/05/28 03:27:45;;;;;;;5.80;3.80;;;11.90;99.90;;;;;;5013775;28;21027;-69
2023/05/28 03:30:11;;;;;;;7.87;4.93;;;12.00;99.90;;;;;;5008056;28;20204;-70
2023/05/28 03:32:37;;;;;;;7.43;4.40;;;12.00;99.90;;;;;;5012641;28;20204;-69
2023/05/28 03:35:03;;;;;;;8.10;4.43;;;12.10;99.90;;;;;;5025897;28;20439;-69
2023/05/28 03:37:29;;;;;;;8.00;5.20;;;12.10;99.90;;;;;;5013440;28;20538;-71
2023/05/28 03:39:54;;;;;;;7.00;4.60;;;12.10;99.90;;;;;;5013300;28;20200;-68
2023/05/28 03:42:21;;;;;;;6.03;4.20;;;12.20;99.90;;;;;;5013152;28;20571;-68
2023/05/28 03:44:46;;;;;;;7.97;4.30;;;12.20;99.90;;;;;;5013221;28;20247;-69
2023/05/28 03:47:12;;;;;;;6.70;4.97;;;12.30;99.90;;;;;;5012883;28;20510;-67
2023/05/28 03:49:38;;;;;;;9.17;4.17;;;12.30;99.90;;;;;;5013058;28;20271;-69
2023/05/28 03:52:04;;;;;;;7.10;3.83;;;12.40;99.90;;;;;;5012919;28;20446;-68
2023/05/28 03:54:31;;;;;;;7.00;4.40;;;12.50;99.90;;;;;;5012955;28;20566;-68
2023/05/28 03:56:57;;;;;;;6.20;3.83;;;12.50;99.90;;;;;;5012727;28;20407;-67
2023/05/28 03:59:22;;;;;;;5.53;3.97;;;12.60;99.90;;;;;;5013072;28;20455;-67
2023/05/28 04:01:48;;;;;;;5.47;4.10;;;12.60;99.90;;;;;;5011390;28;20845;-69
2023/05/28 04:04:15;;;;;;;4.10;3.70;;;12.70;99.90;;;;;;5002362;28;20181;-69
2023/05/28 04:06:41;;;;;;;5.97;4.67;;;12.70;99.90;;;;;;5011394;28;20179;-68
2023/05/28 04:09:07;;;;;;;5.43;3.93;;;12.80;99.90;;;;;;5012773;28;20499;-68
2023/05/28 04:11:34;;;;;;;8.50;4.10;;;12.80;99.90;;;;;;5011513;28;20465;-70
2023/05/28 04:14:01;;;;;;;7.80;4.37;;;12.90;99.90;;;;;;5011174;28;20950;-68
2023/05/28 04:16:26;;;;;;;5.40;4.33;;;13.00;99.90;;;;;;5012379;28;20565;-68
2023/05/28 04:18:53;;;;;;;10.50;4.80;;;13.10;99.90;;;;;;5010692;28;20471;-70
2023/05/28 04:21:20;;;;;;;5.50;4.20;;;13.20;99.90;;;;;;5009734;28;21036;-70
2023/05/28 04:23:46;;;;;;;6.70;3.67;;;13.60;99.90;;;;;;5009873;28;20921;-68
2023/05/28 04:26:12;;;;;;;5.30;4.30;;;14.40;99.90;;;;;;5012674;28;20427;-68
2023/05/28 04:28:38;;;;;;;7.67;4.73;;;15.00;99.90;;;;;;5011118;28;20501;-69
2023/05/28 04:31:04;;;;;;;6.43;4.33;;;15.30;99.90;;;;;;5010890;28;20483;-69
2023/05/28 04:33:30;;;;;;;7.87;3.87;;;15.70;99.90;;;;;;5009594;28;20441;-69
2023/05/28 04:35:57;;;;;;;4.93;4.03;;;16.40;99.90;;;;;;5011258;28;20602;-70
2023/05/28 04:38:24;;;;;;;7.03;4.43;;;16.50;99.90;;;;;;5010300;28;20543;-70
2023/05/28 04:40:50;;;;;;;8.00;4.53;;;16.30;99.90;;;;;;5012283;28;20484;-69
2023/05/28 04:43:16;;;;;;;4.17;2.90;;;16.10;99.90;;;;;;5011064;28;20431;-70
2023/05/28 04:45:43;;;;;;;5.10;3.40;;;15.90;99.90;;;;;;5012206;28;20414;-68
2023/05/28 04:48:08;;;;;;;8.03;4.97;;;15.70;99.90;;;;;;5010817;28;20430;-68
2023/05/28 04:50:35;;;;;;;6.70;3.60;;;15.70;99.90;;;;;;5010692;28;20417;-69
2023/05/28 04:53:00;;;;;;;5.93;4.50;;;15.70;99.90;;;;;;5010814;28;20203;-69
2023/05/28 04:55:26;;;;;;;4.53;3.57;;;15.50;99.90;;;;;;5011897;28;20871;-67
2023/05/28 04:57:52;;;;;;;5.83;3.40;;;15.70;99.90;;;;;;5010393;28;20178;-69
2023/05/28 05:00:18;;;;;;;5.70;3.53;;;16.80;99.90;;;;;;5010031;28;20195;-69
2023/05/28 05:02:44;;;;;;;5.20;3.43;;;17.40;99.80;;;;;;5011800;28;20540;-67
2023/05/28 05:05:10;;;;;;;5.17;3.50;;;17.30;99.90;;;;;;5011679;28;20410;-69
2023/05/28 05:07:37;;;;;;;6.23;4.10;;;16.90;99.90;;;;;;5011605;28;20186;-69
2023/05/28 05:10:09;;;;;;;8.47;4.87;;;18.00;99.10;;;;;;5011948;28;20413;-69
2023/05/28 05:12:36;;;;;;;4.70;3.70;;;18.80;96.90;;;;;;5011726;28;20441;-69
2023/05/28 05:15:04;;;;;;;7.33;4.60;;;18.70;96.80;;;;;;5010582;28;20433;-69
2023/05/28 05:17:30;;;;;;;6.70;4.27;;;18.90;96.70;;;;;;5011736;28;20900;-70
2023/05/28 05:19:56;;;;;;;6.33;4.10;;;19.00;95.20;;;;;;5011599;28;20458;-70
2023/05/28 05:22:22;;;;;;;4.50;3.67;;;19.50;95.30;;;;;;5011934;28;20504;-70
2023/05/28 05:24:48;;;;;;;7.40;4.67;;;20.10;94.40;;;;;;5010220;28;20463;-69
2023/05/28 05:27:14;;;;;;;6.80;4.37;;;19.90;93.00;;;;;;5010176;28;20168;-70
2023/05/28 05:29:39;;;;;;;6.83;3.70;;;19.00;94.80;;;;;;5012020;28;20446;-69
2023/05/28 05:32:06;;;;;;;4.63;3.50;;;19.90;93.60;;;;;;5011629;28;20965;-69
2023/05/28 05:34:32;;;;;;;4.93;3.67;;;19.90;93.50;;;;;;5011435;28;20218;-71
2023/05/28 05:37:00;;;;;;;6.30;3.40;;;19.70;93.70;;;;;;5011464;28;20855;-70
2023/05/28 05:39:26;;;;;;;5.50;3.73;;;20.40;92.00;;;;;;5026930;28;20259;-69
2023/05/28 05:41:52;;;;;;;4.50;4.03;;;20.60;91.80;;;;;;5009390;28;20411;-69
2023/05/28 05:44:18;;;;;;;7.23;3.80;;;20.40;91.70;;;;;;5010005;28;20503;-70
2023/05/28 05:46:43;;;;;;;7.20;4.13;;;19.60;92.80;;;;;;5011355;28;20172;-69
2023/05/28 05:49:09;;;;;;;5.67;3.67;;;19.70;92.70;;;;;;5010522;28;20171;-70
2023/05/28 05:51:36;;;;;;;6.23;3.97;;;19.90;91.80;;;;;;5009793;28;20586;-71
2023/05/28 05:54:04;;;;;;;4.73;3.90;;;20.50;91.20;;;;;;5010933;28;20454;-71
2023/05/28 05:56:30;;;;;;;4.50;3.83;;;20.40;91.30;;;;;;5007571;28;20426;-69
2023/05/28 05:58:58;;;;;;;6.67;3.83;;;20.50;90.20;;;;;;5019761;28;20958;-69
2023/05/28 06:01:24;;;;;;;4.90;2.90;;;20.20;91.50;;;;;;5011950;28;20207;-70
2023/05/28 06:03:50;;;;;;;4.80;3.37;;;21.00;89.90;;;;;;5022127;28;20556;-68
2023/05/28 06:06:16;;;;;;;5.57;3.33;;;21.00;86.60;;;;;;5009858;28;20211;-70
2023/05/28 06:08:42;;;;;;;4.90;2.63;;;20.70;88.00;;;;;;5004494;28;20183;-70
2023/05/28 06:11:08;;;;;;;3.73;2.27;;;21.50;85.20;;;;;;5009625;28;20179;-70
2023/05/28 06:13:35;;;;;;;6.93;3.20;;;21.10;83.60;;;;;;5010751;28;20233;-68
2023/05/28 06:16:04;;;;;;;6.07;4.00;;;21.80;84.30;;;;;;5010702;28;20878;-69
2023/05/28 06:18:30;;;;;;;4.43;3.00;;;22.30;81.30;;;;;;5010688;28;20502;-69
2023/05/28 06:20:57;;;;;;;4.50;3.20;;;22.40;79.10;;;;;;5011600;28;20538;-70
2023/05/28 06:23:22;;;;;;;6.20;3.00;;;22.40;79.30;;;;;;5009504;28;20443;-70
2023/05/28 06:25:48;;;;;;;4.00;2.57;;;23.50;76.60;;;;;;5010750;28;20955;-70
2023/05/28 06:28:15;;;;;;;5.00;2.80;;;23.90;74.60;;;;;;5009917;28;20176;-71
2023/05/28 06:30:40;;;;;;;3.60;2.40;;;24.40;71.20;;;;;;5010999;28;20172;-70
2023/05/28 06:33:06;;;;;;;6.20;3.20;;;25.10;66.20;;;;;;5022940;28;20462;-70
2023/05/28 06:35:32;;;;;;;3.63;2.57;;;25.00;65.70;;;;;;5025107;28;20207;-70
2023/05/28 06:37:57;;;;;;;5.30;3.80;;;23.60;68.00;;;;;;5010994;28;20639;-71
2023/05/28 06:40:23;;;;;;;5.60;2.53;;;23.50;69.30;;;;;;5010769;28;20310;-70
2023/05/28 06:42:49;;;;;;;5.10;2.83;;;23.50;69.00;;;;;;5019780;28;20191;-71
2023/05/28 06:45:15;;;;;;;3.83;2.77;;;23.30;71.30;;;;;;5010821;28;20521;-71
2023/05/28 06:47:41;;;;;;;3.13;2.23;;;23.90;70.20;;;;;;5009361;28;20442;-70
2023/05/28 06:50:07;;;;;;;4.17;2.30;;;23.50;69.40;;;;;;5009442;28;20415;-69
2023/05/28 06:52:33;;;;;;;2.97;2.40;;;25.10;62.80;;;;;;5010110;28;20443;-70
2023/05/28 06:54:58;;;;;;;2.90;2.30;;;24.40;64.20;;;;;;5013131;28;20180;-70
2023/05/28 06:57:24;;;;;;;7.23;2.47;;;23.60;66.50;;;;;;5014250;28;20259;-71
2023/05/28 06:59:50;;;;;;;3.33;2.60;;;23.20;69.30;;;;;;5014337;28;20661;-69
2023/05/28 07:02:16;;;;;;;3.60;2.87;;;24.30;60.90;;;;;;5014150;28;20650;-69
2023/05/28 07:04:41;;;;;;;4.67;2.10;;;25.40;60.80;;;;;;5013894;28;20179;-70
2023/05/28 07:07:07;;;;;;;2.70;2.00;;;24.70;60.50;;;;;;5029191;28;20240;-69
2023/05/28 07:09:33;;;;;;;4.30;2.80;;;24.30;59.40;;;;;;5014392;28;20558;-69
2023/05/28 07:11:58;;;;;;;3.77;2.17;;;24.80;58.50;;;;;;5014169;28;20200;-69
2023/05/28 07:14:24;;;;;;;3.73;2.33;;;26.00;56.10;;;;;;5012221;28;20189;-69
2023/05/28 07:16:51;;;;;;;3.27;2.03;;;26.10;56.50;;;;;;5012850;28;20188;-70
2023/05/28 07:19:16;;;;;;;4.20;2.37;;;24.90;57.60;;;;;;5012896;28;20706;-70
2023/05/28 07:21:42;;;;;;;5.20;2.03;;;25.40;57.40;;;;;;5012487;28;20422;-70
2023/05/28 07:24:07;;;;;;;2.60;1.60;;;26.30;53.50;;;;;;5014231;28;20202;-69
2023/05/28 07:26:34;;;;;;;3.30;2.40;;;25.70;55.60;;;;;;5013658;28;20164;-69
2023/05/28 07:29:00;;;;;;;3.70;2.90;;;25.80;58.10;;;;;;5014091;28;20239;-69
2023/05/28 07:31:26;;;;;;;3.07;2.37;;;24.80;57.00;;;;;;5012329;28;20422;-69
2023/05/28 07:33:52;;;;;;;3.90;2.43;;;24.90;60.10;;;;;;5013531;28;20923;-69
2023/05/28 07:36:17;;;;;;;3.77;2.27;;;25.80;57.00;;;;;;5013547;28;20626;-68
2023/05/28 07:38:43;;;;;;;2.70;1.67;;;26.30;55.20;;;;;;5014976;28;20625;-69
2023/05/28 07:41:09;;;;;;;2.90;1.77;;;25.90;55.90;;;;;;5009106;28;20207;-68
2023/05/28 07:43:35;;;;;;;6.00;2.43;;;26.00;55.20;;;;;;5013344;28;20192;-70
2023/05/28 07:46:00;;;;;;;3.73;2.70;;;26.30;54.30;;;;;;5013341;28;20180;-70
2023/05/28 07:48:26;;;;;;;3.30;2.30;;;27.50;53.20;;;;;;5013057;28;20181;-69
2023/05/28 07:50:52;;;;;;;2.00;1.73;;;28.10;51.40;;;;;;5011906;28;20183;-69
2023/05/28 07:53:18;;;;;;;2.00;1.90;;;27.30;51.80;;;;;;5013134;28;20204;-68
2023/05/28 07:55:44;;;;;;;2.93;2.17;;;27.90;48.60;;;;;;5013118;28;20415;-69
2023/05/28 07:58:12;;;;;;;4.03;2.27;;;27.20;49.10;;;;;;5012229;28;20411;-69
2023/05/28 08:00:38;;;;;;;3.30;2.10;;;25.50;51.00;;;;;;5005875;28;20477;-69
2023/05/28 08:03:04;;;;;;;2.93;1.90;;;25.90;51.50;;;;;;5012868;28;20478;-69
2023/05/28 08:05:30;;;;;;;2.73;1.70;;;27.30;52.90;;;;;;5012132;28;20451;-70
2023/05/28 08:07:56;;;;;;;4.77;2.60;;;28.50;48.70;;;;;;5012933;28;20188;-70
2023/05/28 08:10:21;;;;;;;4.70;2.43;;;27.10;50.90;;;;;;5011486;28;20415;-69
2023/05/28 08:12:47;;;;;;;3.33;2.17;;;27.80;49.40;;;;;;5012817;28;20449;-71
2023/05/28 08:15:13;;;;;;;3.50;2.23;;;28.10;47.70;;;;;;5012827;28;20176;-70
2023/05/28 08:17:39;;;;;;;3.67;2.20;;;28.30;49.90;;;;;;5011282;28;20176;-70
2023/05/28 08:20:06;;;;;;;3.10;2.13;;;26.70;49.50;;;;;;5012751;28;20196;-70
2023/05/28 08:22:31;;;;;;;2.63;1.90;;;25.80;51.90;;;;;;5012537;28;20989;-69
2023/05/28 08:24:57;;;;;;;2.43;2.23;;;25.20;53.00;;;;;;5012529;28;20546;-69
2023/05/28 08:27:23;;;;;;;3.33;2.27;;;25.40;52.00;;;;;;5011120;28;20196;-69
2023/05/28 08:29:48;;;;;;;5.10;2.90;;;26.70;48.90;;;;;;5011413;28;20519;-69
2023/05/28 08:32:14;;;;;;;3.27;2.30;;;26.60;50.30;;;;;;5012691;28;20206;-71
2023/05/28 08:34:40;;;;;;;3.10;2.20;;;27.10;49.20;;;;;;5013460;28;20551;-70
2023/05/28 08:37:06;;;;;;;2.80;2.00;;;27.30;47.70;;;;;;5011268;28;20267;-70
2023/05/28 08:39:32;;;;;;;3.67;2.27;;;27.40;48.00;;;;;;5025325;28;20199;-70
2023/05/28 08:41:58;;;;;;;4.50;2.20;;;26.80;49.00;;;;;;5010898;28;20412;-70
2023/05/28 08:44:23;;;;;;;3.07;2.27;;;27.30;46.90;;;;;;5010981;28;20180;-70
2023/05/28 08:46:50;;;;;;;2.27;1.60;;;26.90;48.40;;;;;;5009530;28;20172;-70
2023/05/28 08:49:18;;;;;;;2.70;2.03;;;27.30;47.50;;;;;;5008703;28;20180;-70
2023/05/28 08:51:45;;;;;;;2.80;1.90;;;27.70;46.80;;;;;;5006891;28;20795;-70
2023/05/28 08:54:11;;;;;;;2.43;1.60;;;27.10;46.80;;;;;;5011896;28;20435;-70
2023/05/28 08:56:39;;;;;;;2.40;2.00;;;27.20;47.80;;;;;;5012216;28;20517;-70
2023/05/28 08:59:05;;;;;;;2.70;2.00;;;25.70;49.20;;;;;;5011950;28;20423;-70
2023/05/28 09:01:32;;;;;;;2.40;2.20;;;24.80;50.00;;;;;;5011797;28;20512;-71
2023/05/28 09:03:58;;;;;;;3.00;1.90;;;26.10;50.30;;;;;;5013093;28;20452;-69
2023/05/28 09:06:25;;;;;;;2.40;2.20;;;27.80;47.30;;;;;;5008190;28;20419;-69
2023/05/28 09:08:52;;;;;;;3.67;2.40;;;28.10;46.40;;;;;;5011787;28;20196;-70
2023/05/28 09:11:18;;;;;;;3.40;2.37;;;28.50;45.90;;;;;;5011849;28;20418;-70
2023/05/28 09:13:47;;;;;;;4.33;2.10;;;28.90;45.20;;;;;;5011602;28;20441;-70
2023/05/28 09:16:21;;;;;;;2.50;2.30;;;28.40;46.10;;;;;;5010764;28;20917;-70
2023/05/28 09:19:01;;;;;;;3.73;1.90;;;27.20;48.70;;;;;;5005490;28;20416;-70
2023/05/28 09:21:26;;;;;;;2.73;2.07;;;25.40;51.00;;;;;;5018444;28;20489;-69
2023/05/28 09:23:52;;;;;;;4.30;2.40;;;26.60;48.60;;;;;;5011396;28;20419;-69
2023/05/28 09:26:19;;;;;;;2.40;2.20;;;27.40;48.40;;;;;;5008522;28;20527;-71
2023/05/28 09:28:45;;;;;;;1.73;1.57;;;27.20;46.90;;;;;;5011357;28;20210;-69
2023/05/28 09:31:11;;;;;;;3.07;2.17;;;26.50;46.10;;;;;;5011619;28;20403;-70
2023/05/28 09:33:43;;;;;;;3.73;2.63;;;26.30;46.70;;;;;;5010206;28;20530;-68
2023/05/28 09:36:10;;;;;;;3.10;2.53;;;26.00;46.80;;;;;;5010058;28;20180;-68
2023/05/28 09:38:40;;;;;;;2.60;2.03;;;26.50;45.90;;;;;;5011376;28;20435;-70
2023/05/28 09:41:18;;;;;;;6.30;1.73;;;27.00;46.10;;;;;;5011375;28;20458;-70
2023/05/28 09:43:44;;;;;;;3.87;2.30;;;26.80;45.60;;;;;;5010200;28;20439;-69
2023/05/28 09:46:10;;;;;;;4.60;2.30;;;25.80;47.50;;;;;;5011880;28;20415;-70
2023/05/28 09:48:36;;;;;;;2.97;2.00;;;26.40;45.30;;;;;;5009329;28;20424;-70
2023/05/28 09:51:07;;;;;;;2.43;2.00;;;26.10;46.20;;;;;;5011373;28;20547;-70
2023/05/28 09:53:36;;;;;;;2.30;1.50;;;25.00;47.60;;;;;;5011036;28;20221;-69
2023/05/28 09:56:03;;;;;;;6.33;2.20;;;24.70;49.30;;;;;;5010911;28;20416;-70
2023/05/28 09:58:34;;;;;;;2.80;2.10;;;25.40;48.00;;;;;;5010823;28;20473;-70
2023/05/28 10:01:03;;;;;;;3.63;1.80;;;25.70;47.70;;;;;;5011154;28;20777;-69
2023/05/28 10:03:59;;;;;;;2.63;1.90;;;25.60;47.20;;;;;;5009505;28;20454;-70
2023/05/28 10:06:26;;;;;;;4.67;2.23;;;25.10;48.10;;;;;;4990538;28;20437;-68
2023/05/28 10:08:54;;;;;;;2.67;2.33;;;24.40;48.60;;;;;;5010746;28;20457;-69
2023/05/28 10:11:28;;;;;;;7.03;2.60;;;24.40;48.40;;;;;;5010977;28;20452;-68
2023/05/28 10:13:56;;;;;;;5.00;2.50;;;24.00;49.40;;;;;;5009600;28;20430;-70
2023/05/28 10:16:21;;;;;;;5.40;2.13;;;24.00;49.20;;;;;;5006881;28;20483;-69
2023/05/28 10:18:48;;;;;;;3.50;1.90;;;24.10;48.90;;;;;;5010890;28;20408;-70
2023/05/28 10:21:14;;;;;;;3.77;2.07;;;23.90;49.10;;;;;;5006837;28;20220;-69
2023/05/28 10:23:42;;;;;;;2.90;2.07;;;23.90;49.40;;;;;;5010375;28;20873;-70
2023/05/28 10:26:08;;;;;;;4.17;2.73;;;23.60;49.40;;;;;;5006450;28;20588;-71
2023/05/28 10:28:34;;;;;;;7.17;2.20;;;23.60;50.10;;;;;;5013637;28;20734;-70
2023/05/28 10:31:08;;;;;;;3.80;2.07;;;22.90;52.40;;;;;;5013548;28;20441;-69
2023/05/28 10:33:41;;;;;;;3.40;2.70;;;23.10;51.20;;;;;;5014518;28;20434;-72
2023/05/28 10:36:13;;;;;;;3.10;2.67;;;23.20;51.00;;;;;;5014872;28;20932;-69
2023/05/28 10:38:52;;;;;;;2.53;2.07;;;23.10;50.50;;;;;;5014505;28;20418;-70
2023/05/28 10:41:21;;;;;;;3.40;2.63;;;23.10;51.00;;;;;;5014560;28;20510;-70
2023/05/28 10:43:50;;;;;;;3.17;2.20;;;23.10;51.40;;;;;;5012771;28;20425;-69
2023/05/28 10:46:17;;;;;;;2.80;2.50;;;23.30;50.40;;;;;;5013133;28;20422;-70
2023/05/28 10:49:06;;;;;;;2.80;2.53;;;23.20;50.40;;;;;;5011532;28;20421;-69
2023/05/28 10:52:00;;;;;;;2.67;2.10;;;23.20;51.00;;;;;;5014460;28;20928;-70
2023/05/28 10:54:37;;;;;;;4.17;2.10;;;23.10;49.00;;;;;;5012137;28;20575;-70
2023/05/28 10:57:09;;;;;;;2.47;2.03;;;22.90;49.80;;;;;;5013943;28;20496;-71
2023/05/28 10:59:52;;;;;;;5.27;2.70;;;23.10;50.10;;;;;;5014192;28;21004;-69
2023/05/28 11:02:24;;;;;;;4.07;2.60;;;22.90;50.00;;;;;;5014216;28;20479;-71
2023/05/28 11:04:51;;;;;;;3.77;2.60;;;22.60;50.80;;;;;;5014144;28;20442;-70
2023/05/28 11:07:17;;;;;;;4.20;2.20;;;22.60;51.10;;;;;;5013487;28;20398;-70
2023/05/28 11:09:48;;;;;;;3.77;1.90;;;22.70;51.00;;;;;;5013472;28;20418;-69
2023/05/28 11:12:14;;;;;;;3.63;1.80;;;22.90;49.90;;;;;;5014197;28;20932;-71
2023/05/28 11:14:40;;;;;;;2.10;1.83;;;22.70;49.40;;;;;;5014024;28;20423;-71
2023/05/28 11:17:09;;;;;;;3.93;2.00;;;22.70;50.30;;;;;;5013573;28;20689;-70
2023/05/28 11:19:42;;;;;;;2.80;2.20;;;22.90;50.50;;;;;;5013397;28;20456;-71
2023/05/28 11:22:08;;;;;;;5.20;2.43;;;22.80;49.90;;;;;;5012910;28;20434;-69
2023/05/28 11:24:55;;;;;;;3.17;1.90;;;22.70;50.40;;;;;;5011954;28;20416;-70
2023/05/28 11:27:23;;;;;;;4.67;3.20;;;22.70;49.90;;;;;;5009660;28;20181;-69
2023/05/28 11:29:50;;;;;;;3.80;2.17;;;22.80;50.30;;;;;;5024699;28;20426;-69
2023/05/28 11:32:18;;;;;;;10.23;3.33;;;22.70;49.10;;;;;;5012427;28;20449;-70
2023/05/28 11:34:44;;;;;;;3.30;2.43;;;22.90;49.50;;;;;;5008149;28;20430;-70
2023/05/28 11:37:10;;;;;;;4.07;2.40;;;22.80;48.90;;;;;;5013736;28;20444;-69
2023/05/28 11:39:35;;;;;;;2.63;2.30;;;23.00;50.00;;;;;;5012408;28;20192;-70
2023/05/28 11:42:01;;;;;;;2.63;2.47;;;23.10;50.10;;;;;;5013763;28;20691;-70
2023/05/28 11:44:27;;;;;;;4.50;2.03;;;23.00;50.10;;;;;;5013421;28;20176;-70
2023/05/28 11:46:56;;;;;;;2.00;1.80;;;23.10;50.70;;;;;;5012242;28;20210;-70
2023/05/28 11:49:22;;;;;;;5.10;2.70;;;22.80;49.60;;;;;;5013674;28;20753;-70
2023/05/28 11:51:52;;;;;;;2.50;1.90;;;23.10;49.60;;;;;;5013689;28;20760;-70
2023/05/28 11:54:18;;;;;;;2.70;2.13;;;23.20;49.30;;;;;;5013526;28;20426;-70
2023/05/28 11:56:47;;;;;;;2.93;2.47;;;23.30;49.60;;;;;;5013539;28;20479;-70
2023/05/28 11:59:12;;;;;;;4.03;2.53;;;23.10;49.30;;;;;;5013279;28;20429;-70
2023/05/28 12:01:39;;;;;;;2.93;2.43;;;23.20;49.00;;;;;;5013259;28;20943;-70
2023/05/28 12:04:07;;;;;;;3.23;2.93;;;23.40;49.50;;;;;;5013487;28;20182;-70
2023/05/28 12:06:33;;;;;;;2.60;2.40;;;23.40;49.20;;;;;;5013352;28;20427;-70
2023/05/28 12:09:06;;;;;;;2.80;2.10;;;23.30;49.30;;;;;;5013191;28;20420;-69
2023/05/28 12:11:32;;;;;;;3.10;2.47;;;23.30;49.20;;;;;;5013086;28;20423;-70
2023/05/28 12:14:08;;;;;;;2.63;2.20;;;23.00;49.00;;;;;;5013599;28;20521;-70
2023/05/28 12:16:44;;;;;;;2.50;2.03;;;23.20;48.40;;;;;;5011895;28;20920;-70
2023/05/28 12:19:14;;;;;;;3.13;2.47;;;23.40;47.60;;;;;;5013018;28;20435;-69
2023/05/28 12:21:39;;;;;;;2.60;2.00;;;23.30;47.30;;;;;;5011368;28;20435;-68
2023/05/28 12:24:14;;;;;;;2.43;2.23;;;23.00;48.20;;;;;;5013228;28;20489;-70
2023/05/28 12:26:43;;;;;;;2.10;1.90;;;23.20;48.10;;;;;;5012038;28;20172;-70
2023/05/28 12:29:09;;;;;;;3.57;1.90;;;23.10;47.50;;;;;;5011811;28;20412;-70
2023/05/28 12:31:35;;;;;;;9.53;2.13;;;23.10;47.40;;;;;;5013449;28;20468;-70
2023/05/28 12:34:01;;;;;;;5.17;2.87;;;23.10;48.30;;;;;;5012954;28;20475;-70
2023/05/28 12:36:27;;;;;;;2.20;2.00;;;23.30;48.50;;;;;;5012643;28;20675;-70
2023/05/28 12:38:53;;;;;;;4.07;2.23;;;23.60;48.50;;;;;;5012888;28;20413;-70
2023/05/28 12:41:19;;;;;;;2.43;2.13;;;23.60;49.00;;;;;;5012454;28;20630;-69
2023/05/28 12:43:44;;;;;;;2.50;2.30;;;23.40;49.50;;;;;;5012203;28;20802;-69